Sexsmith, Canada
Current Conditions -  °F | °C
As of 7:00 AM on Thursday 23 Oct 2014 (Local Time) from CYQU Reporting Station
Rain Showers Rain Showers  
Wind Chill: 31°   Ceiling: 4000
Heat Index: 37°   Visibility: 20mi
Dew Point: 36°   Wind: 9mph
Humidity: 93%   Direction: 350°N
Pressure: 29.41"   Gusts: NA
Location:  55.35°N, 118.78°W
Report Text: CYQU 231300Z 35008KT 20SM -SHRA BKN040 OVC120 03/02 A2941 RMK SC6AC2 SLP979
Loading
Personal Weather Stations






























Interactive Weather Map
Tropical Storm Tracking
New forecast layout! Learn more

10-Day Weather Forecast

Advertisements
Track Severe Weather on mobile